sensor_id;sensor_type;location;lat;lon;timestamp;pressure;altitude;pressure_sealevel;temperature;humidity
70684;BME280;58263;48.146;11.440;2022-10-16T00:00:21;95703.88;;;12.96;81.37
70684;BME280;58263;48.146;11.440;2022-10-16T00:02:46;95705.75;;;12.95;81.27
70684;BME280;58263;48.146;11.440;2022-10-16T00:05:11;95711.94;;;12.96;81.19
70684;BME280;58263;48.146;11.440;2022-10-16T00:07:36;95714.38;;;12.97;80.73
70684;BME280;58263;48.146;11.440;2022-10-16T00:10:02;95718.47;;;13.00;80.81
70684;BME280;58263;48.146;11.440;2022-10-16T00:12:28;95714.88;;;12.94;80.24
70684;BME280;58263;48.146;11.440;2022-10-16T00:14:53;95714.56;;;12.91;80.40
70684;BME280;58263;48.146;11.440;2022-10-16T00:17:18;95709.16;;;12.91;80.51
70684;BME280;58263;48.146;11.440;2022-10-16T00:19:44;95712.44;;;12.93;80.77
70684;BME280;58263;48.146;11.440;2022-10-16T00:22:09;95704.28;;;12.88;80.84
70684;BME280;58263;48.146;11.440;2022-10-16T00:24:34;95705.59;;;12.85;80.09
70684;BME280;58263;48.146;11.440;2022-10-16T00:26:59;95710.88;;;12.80;80.70
70684;BME280;58263;48.146;11.440;2022-10-16T00:29:25;95711.47;;;12.82;80.36
70684;BME280;58263;48.146;11.440;2022-10-16T00:31:50;95703.06;;;12.78;80.18
70684;BME280;58263;48.146;11.440;2022-10-16T00:34:15;95705.75;;;12.78;80.73
70684;BME280;58263;48.146;11.440;2022-10-16T00:36:40;95698.72;;;12.77;81.14
70684;BME280;58263;48.146;11.440;2022-10-16T00:39:06;95709.59;;;12.82;81.06
70684;BME280;58263;48.146;11.440;2022-10-16T00:41:32;95713.91;;;12.83;81.00
70684;BME280;58263;48.146;11.440;2022-10-16T00:43:59;95722.16;;;12.77;81.66
70684;BME280;58263;48.146;11.440;2022-10-16T00:46:34;95719.13;;;12.73;81.47
70684;BME280;58263;48.146;11.440;2022-10-16T00:49:10;95718.88;;;12.75;81.41
70684;BME280;58263;48.146;11.440;2022-10-16T00:51:50;95724.50;;;12.73;81.88
70684;BME280;58263;48.146;11.440;2022-10-16T00:56:44;95716.69;;;12.72;81.03
70684;BME280;58263;48.146;11.440;2022-10-16T00:59:18;95716.38;;;12.68;81.12
70684;BME280;58263;48.146;11.440;2022-10-16T01:01:44;95721.97;;;12.66;81.31
70684;BME280;58263;48.146;11.440;2022-10-16T01:04:09;95724.59;;;12.61;81.34
70684;BME280;58263;48.146;11.440;2022-10-16T01:12:06;95738.88;;;12.62;81.97
70684;BME280;58263;48.146;11.440;2022-10-16T01:15:08;95740.75;;;12.61;81.82
70684;BME280;58263;48.146;11.440;2022-10-16T01:23:05;95731.94;;;12.66;82.81
70684;BME280;58263;48.146;11.440;2022-10-16T01:28:45;95744.59;;;12.65;82.46
70684;BME280;58263;48.146;11.440;2022-10-16T01:31:18;95740.75;;;12.61;82.19
70684;BME280;58263;48.146;11.440;2022-10-16T01:33:48;95733.47;;;12.62;81.99
70684;BME280;58263;48.146;11.440;2022-10-16T01:36:21;95736.66;;;12.59;83.61
70684;BME280;58263;48.146;11.440;2022-10-16T01:38:51;95729.75;;;12.63;82.87
70684;BME280;58263;48.146;11.440;2022-10-16T01:41:24;95731.84;;;12.61;83.69
70684;BME280;58263;48.146;11.440;2022-10-16T01:44:09;95725.66;;;12.60;83.64
70684;BME280;58263;48.146;11.440;2022-10-16T01:46:39;95721.03;;;12.56;84.38
70684;BME280;58263;48.146;11.440;2022-10-16T01:49:08;95717.25;;;12.57;84.51
70684;BME280;58263;48.146;11.440;2022-10-16T01:51:35;95722.22;;;12.65;83.85
70684;BME280;58263;48.146;11.440;2022-10-16T01:54:04;95721.16;;;12.66;84.24
70684;BME280;58263;48.146;11.440;2022-10-16T01:56:31;95708.31;;;12.68;84.08
70684;BME280;58263;48.146;11.440;2022-10-16T01:59:00;95714.31;;;12.75;84.10
70684;BME280;58263;48.146;11.440;2022-10-16T02:01:29;95716.44;;;12.73;84.01
70684;BME280;58263;48.146;11.440;2022-10-16T02:04:00;95719.63;;;12.70;84.28
70684;BME280;58263;48.146;11.440;2022-10-16T02:06:27;95712.69;;;12.74;84.26
70684;BME280;58263;48.146;11.440;2022-10-16T02:08:53;95712.44;;;12.76;84.55
70684;BME280;58263;48.146;11.440;2022-10-16T02:11:18;95716.53;;;12.78;84.40
70684;BME280;58263;48.146;11.440;2022-10-16T02:13:48;95716.03;;;12.81;84.50
70684;BME280;58263;48.146;11.440;2022-10-16T02:16:16;95720.25;;;12.77;84.78
70684;BME280;58263;48.146;11.440;2022-10-16T02:18:42;95714.41;;;12.80;84.18
70684;BME280;58263;48.146;11.440;2022-10-16T02:21:27;95715.22;;;12.81;84.88
70684;BME280;58263;48.146;11.440;2022-10-16T02:29:30;95713.56;;;12.80;84.42
70684;BME280;58263;48.146;11.440;2022-10-16T02:32:01;95729.25;;;12.83;84.63
70684;BME280;58263;48.146;11.440;2022-10-16T02:34:30;95723.03;;;12.82;84.09
70684;BME280;58263;48.146;11.440;2022-10-16T02:36:57;95735.78;;;12.87;84.18
70684;BME280;58263;48.146;11.440;2022-10-16T02:39:23;95728.59;;;12.93;83.58
70684;BME280;58263;48.146;11.440;2022-10-16T02:41:49;95733.66;;;12.89;83.88
70684;BME280;58263;48.146;11.440;2022-10-16T02:44:14;95732.69;;;12.95;83.25
70684;BME280;58263;48.146;11.440;2022-10-16T02:46:40;95727.59;;;12.99;83.42
70684;BME280;58263;48.146;11.440;2022-10-16T02:49:05;95736.19;;;12.96;83.04
70684;BME280;58263;48.146;11.440;2022-10-16T02:51:30;95743.44;;;12.95;82.69
70684;BME280;58263;48.146;11.440;2022-10-16T02:53:56;95736.59;;;12.88;83.01
70684;BME280;58263;48.146;11.440;2022-10-16T02:56:21;95741.16;;;12.87;82.17
70684;BME280;58263;48.146;11.440;2022-10-16T02:58:46;95735.38;;;12.78;82.65
70684;BME280;58263;48.146;11.440;2022-10-16T03:01:12;95738.22;;;12.89;82.68
70684;BME280;58263;48.146;11.440;2022-10-16T03:03:38;95731.47;;;12.86;82.83
70684;BME280;58263;48.146;11.440;2022-10-16T03:06:03;95725.81;;;12.88;82.35
70684;BME280;58263;48.146;11.440;2022-10-16T03:08:28;95733.31;;;12.85;82.78
70684;BME280;58263;48.146;11.440;2022-10-16T03:10:54;95732.59;;;12.90;82.59
70684;BME280;58263;48.146;11.440;2022-10-16T03:13:20;95725.19;;;12.80;82.79
70684;BME280;58263;48.146;11.440;2022-10-16T03:15:45;95731.13;;;12.82;82.87
70684;BME280;58263;48.146;11.440;2022-10-16T03:18:11;95744.09;;;12.85;83.01
70684;BME280;58263;48.146;11.440;2022-10-16T03:20:36;95735.94;;;12.80;83.19
70684;BME280;58263;48.146;11.440;2022-10-16T03:23:01;95736.84;;;12.86;82.58
70684;BME280;58263;48.146;11.440;2022-10-16T03:25:27;95727.94;;;12.85;83.08
70684;BME280;58263;48.146;11.440;2022-10-16T03:27:53;95735.28;;;12.90;82.75
70684;BME280;58263;48.146;11.440;2022-10-16T03:30:18;95746.22;;;12.83;82.97
70684;BME280;58263;48.146;11.440;2022-10-16T03:32:44;95729.25;;;12.83;83.12
70684;BME280;58263;48.146;11.440;2022-10-16T03:35:10;95741.63;;;12.84;83.37
70684;BME280;58263;48.146;11.440;2022-10-16T03:37:35;95746.56;;;12.87;83.55
70684;BME280;58263;48.146;11.440;2022-10-16T03:40:01;95740.34;;;12.87;83.35
70684;BME280;58263;48.146;11.440;2022-10-16T03:42:27;95749.97;;;12.82;83.81
70684;BME280;58263;48.146;11.440;2022-10-16T03:44:52;95746.72;;;12.80;83.81
70684;BME280;58263;48.146;11.440;2022-10-16T03:47:17;95751.50;;;12.78;83.75
70684;BME280;58263;48.146;11.440;2022-10-16T03:49:46;95748.66;;;12.85;84.06
70684;BME280;58263;48.146;11.440;2022-10-16T03:52:12;95745.72;;;12.87;83.91
70684;BME280;58263;48.146;11.440;2022-10-16T03:54:37;95738.22;;;12.89;83.54
70684;BME280;58263;48.146;11.440;2022-10-16T03:57:02;95748.09;;;12.83;83.42
70684;BME280;58263;48.146;11.440;2022-10-16T03:59:28;95740.69;;;12.90;83.65
70684;BME280;58263;48.146;11.440;2022-10-16T04:01:53;95741.81;;;12.94;83.22
70684;BME280;58263;48.146;11.440;2022-10-16T04:04:18;95744.59;;;12.99;83.24
70684;BME280;58263;48.146;11.440;2022-10-16T04:06:43;95746.28;;;13.06;83.02
70684;BME280;58263;48.146;11.440;2022-10-16T04:09:09;95742.53;;;13.07;83.04
70684;BME280;58263;48.146;11.440;2022-10-16T04:11:34;95744.34;;;13.01;83.10
70684;BME280;58263;48.146;11.440;2022-10-16T04:13:59;95733.66;;;13.06;83.14
70684;BME280;58263;48.146;11.440;2022-10-16T04:16:25;95740.09;;;13.05;83.18
70684;BME280;58263;48.146;11.440;2022-10-16T04:18:50;95744.19;;;13.08;82.84
70684;BME280;58263;48.146;11.440;2022-10-16T04:21:15;95739.09;;;13.11;82.42
70684;BME280;58263;48.146;11.440;2022-10-16T04:23:42;95736.22;;;13.18;82.11
70684;BME280;58263;48.146;11.440;2022-10-16T04:26:07;95741.16;;;13.21;82.52
70684;BME280;58263;48.146;11.440;2022-10-16T04:28:32;95740.41;;;13.26;82.65
70684;BME280;58263;48.146;11.440;2022-10-16T04:30:58;95751.50;;;13.29;82.47
70684;BME280;58263;48.146;11.440;2022-10-16T04:33:23;95760.06;;;13.26;81.98
70684;BME280;58263;48.146;11.440;2022-10-16T04:35:48;95761.69;;;13.27;82.53
70684;BME280;58263;48.146;11.440;2022-10-16T04:38:13;95753.88;;;13.26;82.31
70684;BME280;58263;48.146;11.440;2022-10-16T04:40:39;95750.41;;;13.30;82.12
70684;BME280;58263;48.146;11.440;2022-10-16T04:43:06;95755.34;;;13.33;82.24
70684;BME280;58263;48.146;11.440;2022-10-16T04:45:32;95751.81;;;13.33;82.66
70684;BME280;58263;48.146;11.440;2022-10-16T04:47:58;95744.88;;;13.37;82.22
70684;BME280;58263;48.146;11.440;2022-10-16T04:50:24;95740.34;;;13.38;82.88
70684;BME280;58263;48.146;11.440;2022-10-16T04:52:49;95737.28;;;13.34;82.92
70684;BME280;58263;48.146;11.440;2022-10-16T04:55:14;95731.09;;;13.33;82.48
70684;BME280;58263;48.146;11.440;2022-10-16T04:57:40;95740.78;;;13.34;82.51
70684;BME280;58263;48.146;11.440;2022-10-16T05:00:06;95748.84;;;13.34;82.11
70684;BME280;58263;48.146;11.440;2022-10-16T05:02:33;95746.16;;;13.34;82.42
70684;BME280;58263;48.146;11.440;2022-10-16T05:04:58;95753.56;;;13.39;82.25
70684;BME280;58263;48.146;11.440;2022-10-16T05:07:23;95748.97;;;13.40;82.02
70684;BME280;58263;48.146;11.440;2022-10-16T05:09:48;95748.16;;;13.39;82.67
70684;BME280;58263;48.146;11.440;2022-10-16T05:12:14;95748.72;;;13.41;82.05
70684;BME280;58263;48.146;11.440;2022-10-16T05:14:39;95752.47;;;13.40;82.44
70684;BME280;58263;48.146;11.440;2022-10-16T05:17:04;95746.53;;;13.38;82.49
70684;BME280;58263;48.146;11.440;2022-10-16T05:19:30;95751.41;;;13.41;81.93
70684;BME280;58263;48.146;11.440;2022-10-16T05:21:55;95762.19;;;13.41;82.24
70684;BME280;58263;48.146;11.440;2022-10-16T05:24:21;95768.16;;;13.43;82.39
70684;BME280;58263;48.146;11.440;2022-10-16T05:26:46;95756.81;;;13.41;81.91
70684;BME280;58263;48.146;11.440;2022-10-16T05:29:12;95758.59;;;13.35;82.65
70684;BME280;58263;48.146;11.440;2022-10-16T05:31:37;95758.84;;;13.34;82.48
70684;BME280;58263;48.146;11.440;2022-10-16T05:34:02;95760.94;;;13.32;82.54
70684;BME280;58263;48.146;11.440;2022-10-16T05:36:28;95764.00;;;13.35;82.59
70684;BME280;58263;48.146;11.440;2022-10-16T05:38:53;95771.25;;;13.35;82.23
70684;BME280;58263;48.146;11.440;2022-10-16T05:41:19;95765.28;;;13.33;82.08
70684;BME280;58263;48.146;11.440;2022-10-16T05:43:50;95771.50;;;13.33;82.72
70684;BME280;58263;48.146;11.440;2022-10-16T05:46:16;95782.59;;;13.37;82.34
70684;BME280;58263;48.146;11.440;2022-10-16T05:48:41;95780.97;;;13.36;82.15
70684;BME280;58263;48.146;11.440;2022-10-16T05:51:10;95779.41;;;13.40;82.18
70684;BME280;58263;48.146;11.440;2022-10-16T05:53:37;95785.88;;;13.39;81.73
70684;BME280;58263;48.146;11.440;2022-10-16T05:56:03;95782.94;;;13.41;81.42
70684;BME280;58263;48.146;11.440;2022-10-16T05:58:30;95777.88;;;13.44;81.54
70684;BME280;58263;48.146;11.440;2022-10-16T06:01:01;95794.03;;;13.44;81.32
70684;BME280;58263;48.146;11.440;2022-10-16T06:03:27;95791.41;;;13.49;80.95
70684;BME280;58263;48.146;11.440;2022-10-16T06:05:53;95789.78;;;13.48;80.89
70684;BME280;58263;48.146;11.440;2022-10-16T06:08:20;95789.22;;;13.46;81.19
70684;BME280;58263;48.146;11.440;2022-10-16T06:10:46;95796.78;;;13.49;80.85
70684;BME280;58263;48.146;11.440;2022-10-16T06:13:13;95799.75;;;13.48;80.82
70684;BME280;58263;48.146;11.440;2022-10-16T06:15:39;95803.44;;;13.42;80.84
70684;BME280;58263;48.146;11.440;2022-10-16T06:18:07;95796.16;;;13.42;81.20
70684;BME280;58263;48.146;11.440;2022-10-16T06:20:32;95807.44;;;13.39;81.46
70684;BME280;58263;48.146;11.440;2022-10-16T06:22:57;95808.00;;;13.41;81.34
70684;BME280;58263;48.146;11.440;2022-10-16T06:25:23;95816.06;;;13.41;81.20
70684;BME280;58263;48.146;11.440;2022-10-16T06:27:48;95814.13;;;13.37;80.98
70684;BME280;58263;48.146;11.440;2022-10-16T06:30:13;95816.06;;;13.41;81.29
70684;BME280;58263;48.146;11.440;2022-10-16T06:32:39;95816.41;;;13.45;80.67
70684;BME280;58263;48.146;11.440;2022-10-16T06:35:04;95818.34;;;13.49;80.79
70684;BME280;58263;48.146;11.440;2022-10-16T06:37:29;95820.00;;;13.50;81.07
70684;BME280;58263;48.146;11.440;2022-10-16T06:39:55;95820.31;;;13.54;80.65
70684;BME280;58263;48.146;11.440;2022-10-16T06:42:21;95821.72;;;13.57;80.72
70684;BME280;58263;48.146;11.440;2022-10-16T06:44:46;95830.34;;;13.59;80.32
70684;BME280;58263;48.146;11.440;2022-10-16T06:47:11;95836.78;;;13.58;80.06
70684;BME280;58263;48.146;11.440;2022-10-16T06:49:37;95837.38;;;13.60;80.24
70684;BME280;58263;48.146;11.440;2022-10-16T06:52:02;95840.41;;;13.63;80.19
70684;BME280;58263;48.146;11.440;2022-10-16T06:54:28;95851.91;;;13.59;79.81
70684;BME280;58263;48.146;11.440;2022-10-16T06:56:54;95844.97;;;13.63;80.29
70684;BME280;58263;48.146;11.440;2022-10-16T06:59:20;95847.91;;;13.61;80.43
70684;BME280;58263;48.146;11.440;2022-10-16T07:01:46;95847.31;;;13.59;80.60
70684;BME280;58263;48.146;11.440;2022-10-16T07:04:11;95849.84;;;13.66;80.18
70684;BME280;58263;48.146;11.440;2022-10-16T07:06:37;95855.56;;;13.69;80.10
70684;BME280;58263;48.146;11.440;2022-10-16T07:09:04;95851.06;;;13.75;79.62
70684;BME280;58263;48.146;11.440;2022-10-16T07:11:30;95855.47;;;13.81;79.48
70684;BME280;58263;48.146;11.440;2022-10-16T07:13:55;95866.34;;;13.86;79.71
70684;BME280;58263;48.146;11.440;2022-10-16T07:16:23;95865.84;;;13.90;79.71
70684;BME280;58263;48.146;11.440;2022-10-16T07:18:49;95863.16;;;13.90;79.95
70684;BME280;58263;48.146;11.440;2022-10-16T07:21:20;95872.66;;;13.97;79.59
70684;BME280;58263;48.146;11.440;2022-10-16T07:23:50;95869.25;;;14.02;79.70
70684;BME280;58263;48.146;11.440;2022-10-16T07:26:16;95871.44;;;14.05;79.74
70684;BME280;58263;48.146;11.440;2022-10-16T07:28:42;95879.84;;;14.09;80.43
70684;BME280;58263;48.146;11.440;2022-10-16T07:31:11;95881.50;;;14.10;80.35
70684;BME280;58263;48.146;11.440;2022-10-16T07:33:36;95882.63;;;14.14;80.01
70684;BME280;58263;48.146;11.440;2022-10-16T07:36:03;95886.75;;;14.22;80.11
70684;BME280;58263;48.146;11.440;2022-10-16T07:38:28;95891.09;;;14.23;80.34
70684;BME280;58263;48.146;11.440;2022-10-16T07:41:05;95888.47;;;14.28;79.61
70684;BME280;58263;48.146;11.440;2022-10-16T07:43:31;95899.94;;;14.40;79.41
70684;BME280;58263;48.146;11.440;2022-10-16T07:45:57;95897.00;;;14.64;79.31
70684;BME280;58263;48.146;11.440;2022-10-16T07:48:23;95902.09;;;14.82;79.42
70684;BME280;58263;48.146;11.440;2022-10-16T07:50:51;95901.44;;;14.97;79.27
70684;BME280;58263;48.146;11.440;2022-10-16T07:53:16;95906.00;;;15.24;77.97
70684;BME280;58263;48.146;11.440;2022-10-16T07:55:42;95903.25;;;15.46;78.22
70684;BME280;58263;48.146;11.440;2022-10-16T07:58:07;95905.84;;;15.68;77.17
70684;BME280;58263;48.146;11.440;2022-10-16T08:00:33;95903.09;;;15.96;75.25
70684;BME280;58263;48.146;11.440;2022-10-16T08:02:59;95903.78;;;16.23;75.90
70684;BME280;58263;48.146;11.440;2022-10-16T08:05:26;95905.03;;;16.53;72.88
70684;BME280;58263;48.146;11.440;2022-10-16T08:07:52;95906.47;;;16.82;70.35
70684;BME280;58263;48.146;11.440;2022-10-16T08:10:18;95912.81;;;17.13;70.73
70684;BME280;58263;48.146;11.440;2022-10-16T08:12:44;95907.16;;;17.40;69.32
70684;BME280;58263;48.146;11.440;2022-10-16T08:15:09;95911.81;;;17.61;67.81
70684;BME280;58263;48.146;11.440;2022-10-16T08:17:35;95913.94;;;17.84;66.89
70684;BME280;58263;48.146;11.440;2022-10-16T08:20:01;95915.06;;;17.99;66.72
70684;BME280;58263;48.146;11.440;2022-10-16T08:22:27;95918.81;;;18.13;65.19
70684;BME280;58263;48.146;11.440;2022-10-16T08:24:52;95916.91;;;18.29;63.91
70684;BME280;58263;48.146;11.440;2022-10-16T08:27:17;95919.31;;;18.46;63.65
70684;BME280;58263;48.146;11.440;2022-10-16T08:29:43;95917.59;;;18.66;62.75
70684;BME280;58263;48.146;11.440;2022-10-16T08:32:08;95922.69;;;18.83;63.69
70684;BME280;58263;48.146;11.440;2022-10-16T08:34:33;95927.81;;;19.00;61.88
70684;BME280;58263;48.146;11.440;2022-10-16T08:36:58;95930.44;;;19.15;61.91
70684;BME280;58263;48.146;11.440;2022-10-16T08:39:24;95924.94;;;19.31;61.23
70684;BME280;58263;48.146;11.440;2022-10-16T08:47:26;95938.13;;;19.87;60.98
70684;BME280;58263;48.146;11.440;2022-10-16T08:49:57;95950.06;;;19.91;57.07
70684;BME280;58263;48.146;11.440;2022-10-16T08:52:25;95944.78;;;20.05;58.28
70684;BME280;58263;48.146;11.440;2022-10-16T08:54:55;95940.44;;;20.04;57.72
70684;BME280;58263;48.146;11.440;2022-10-16T08:57:24;95943.53;;;20.22;58.14
70684;BME280;58263;48.146;11.440;2022-10-16T08:59:51;95948.38;;;20.30;57.90
70684;BME280;58263;48.146;11.440;2022-10-16T09:10:41;95945.53;;;20.70;55.77
70684;BME280;58263;48.146;11.440;2022-10-16T09:13:29;95955.91;;;20.92;55.30
70684;BME280;58263;48.146;11.440;2022-10-16T09:21:40;95941.09;;;21.17;52.45
70684;BME280;58263;48.146;11.440;2022-10-16T09:26:38;95946.47;;;21.03;52.24
70684;BME280;58263;48.146;11.440;2022-10-16T09:29:04;95945.69;;;21.03;51.74
70684;BME280;58263;48.146;11.440;2022-10-16T09:31:29;95946.19;;;21.05;52.61
70684;BME280;58263;48.146;11.440;2022-10-16T09:33:59;95941.63;;;21.00;52.17
70684;BME280;58263;48.146;11.440;2022-10-16T09:36:28;95962.94;;;21.17;52.94
70684;BME280;58263;48.146;11.440;2022-10-16T09:39:08;95970.03;;;21.37;54.62
70684;BME280;58263;48.146;11.440;2022-10-16T09:41:44;95966.88;;;21.49;53.22
70684;BME280;58263;48.146;11.440;2022-10-16T09:44:29;95964.78;;;21.65;51.26
70684;BME280;58263;48.146;11.440;2022-10-16T09:47:23;95970.66;;;21.91;50.17
70684;BME280;58263;48.146;11.440;2022-10-16T09:49:59;95967.47;;;22.03;49.35
70684;BME280;58263;48.146;11.440;2022-10-16T09:52:28;95971.56;;;22.20;49.12
70684;BME280;58263;48.146;11.440;2022-10-16T09:54:56;95971.41;;;22.44;49.51
70684;BME280;58263;48.146;11.440;2022-10-16T09:57:22;95972.47;;;22.76;47.51
70684;BME280;58263;48.146;11.440;2022-10-16T09:59:53;95969.84;;;23.26;46.65
70684;BME280;58263;48.146;11.440;2022-10-16T10:02:30;95974.66;;;23.80;47.75
70684;BME280;58263;48.146;11.440;2022-10-16T10:04:57;95969.13;;;24.08;45.38
70684;BME280;58263;48.146;11.440;2022-10-16T10:07:30;95965.13;;;24.45;43.51
70684;BME280;58263;48.146;11.440;2022-10-16T10:10:00;95954.88;;;24.91;43.46
70684;BME280;58263;48.146;11.440;2022-10-16T10:12:28;95966.38;;;26.04;42.01
70684;BME280;58263;48.146;11.440;2022-10-16T10:14:58;95967.25;;;27.80;36.95
70684;BME280;58263;48.146;11.440;2022-10-16T10:17:29;95964.91;;;29.16;34.51
70684;BME280;58263;48.146;11.440;2022-10-16T10:20:23;95974.00;;;30.79;33.16
70684;BME280;58263;48.146;11.440;2022-10-16T10:22:48;95976.50;;;31.32;31.66
70684;BME280;58263;48.146;11.440;2022-10-16T10:25:23;95971.97;;;32.54;28.15
70684;BME280;58263;48.146;11.440;2022-10-16T10:36:27;95966.47;;;35.24;23.14
70684;BME280;58263;48.146;11.440;2022-10-16T10:39:13;95966.00;;;36.41;23.38
70684;BME280;58263;48.146;11.440;2022-10-16T11:03:46;95950.63;;;42.82;15.74
70684;BME280;58263;48.146;11.440;2022-10-16T11:06:20;95945.25;;;43.21;15.66
70684;BME280;58263;48.146;11.440;2022-10-16T11:09:16;95950.75;;;43.12;16.35
70684;BME280;58263;48.146;11.440;2022-10-16T11:11:56;95946.94;;;42.49;15.34
70684;BME280;58263;48.146;11.440;2022-10-16T11:14:34;95949.53;;;41.55;18.08
70684;BME280;58263;48.146;11.440;2022-10-16T11:17:08;95943.41;;;40.86;17.47
70684;BME280;58263;48.146;11.440;2022-10-16T11:19:56;95950.63;;;39.56;18.39
70684;BME280;58263;48.146;11.440;2022-10-16T11:22:36;95944.97;;;39.60;18.77
70684;BME280;58263;48.146;11.440;2022-10-16T11:25:25;95946.47;;;41.46;17.11
70684;BME280;58263;48.146;11.440;2022-10-16T11:30:54;95938.81;;;42.51;16.24
70684;BME280;58263;48.146;11.440;2022-10-16T11:33:30;95933.81;;;43.28;14.84
70684;BME280;58263;48.146;11.440;2022-10-16T11:39:11;95925.63;;;40.38;16.16
70684;BME280;58263;48.146;11.440;2022-10-16T11:41:47;95934.22;;;40.58;16.43
70684;BME280;58263;48.146;11.440;2022-10-16T11:44:23;95934.00;;;41.47;16.18
70684;BME280;58263;48.146;11.440;2022-10-16T11:49:25;95935.88;;;41.06;15.36
70684;BME280;58263;48.146;11.440;2022-10-16T11:52:20;95937.28;;;40.05;17.15
70684;BME280;58263;48.146;11.440;2022-10-16T11:54:52;95934.84;;;40.08;16.75
70684;BME280;58263;48.146;11.440;2022-10-16T11:57:27;95933.00;;;39.52;18.69
70684;BME280;58263;48.146;11.440;2022-10-16T12:00:24;95936.25;;;39.01;19.07
70684;BME280;58263;48.146;11.440;2022-10-16T12:05:28;95939.81;;;41.60;15.88
70684;BME280;58263;48.146;11.440;2022-10-16T12:08:06;95936.25;;;43.26;14.86
70684;BME280;58263;48.146;11.440;2022-10-16T12:10:34;95934.66;;;43.58;14.20
70684;BME280;58263;48.146;11.440;2022-10-16T12:13:04;95931.28;;;42.64;14.96
70684;BME280;58263;48.146;11.440;2022-10-16T12:15:32;95931.66;;;42.46;16.24
70684;BME280;58263;48.146;11.440;2022-10-16T12:17:58;95925.69;;;42.24;15.35
70684;BME280;58263;48.146;11.440;2022-10-16T12:20:33;95926.00;;;40.67;16.42
70684;BME280;58263;48.146;11.440;2022-10-16T12:23:03;95931.56;;;39.36;19.62
70684;BME280;58263;48.146;11.440;2022-10-16T12:25:39;95913.75;;;38.49;18.36
70684;BME280;58263;48.146;11.440;2022-10-16T12:30:40;95917.25;;;38.67;19.22
70684;BME280;58263;48.146;11.440;2022-10-16T12:35:43;95924.22;;;39.88;17.05
70684;BME280;58263;48.146;11.440;2022-10-16T12:40:43;95921.56;;;41.88;14.93
70684;BME280;58263;48.146;11.440;2022-10-16T12:49:06;95920.06;;;41.40;15.20
70684;BME280;58263;48.146;11.440;2022-10-16T12:53:59;95912.28;;;42.48;14.11
70684;BME280;58263;48.146;11.440;2022-10-16T12:56:37;95912.59;;;42.70;13.35
70684;BME280;58263;48.146;11.440;2022-10-16T12:59:21;95906.66;;;40.73;15.23
70684;BME280;58263;48.146;11.440;2022-10-16T13:05:15;95905.59;;;42.22;12.42
70684;BME280;58263;48.146;11.440;2022-10-16T13:16:36;95906.97;;;37.00;17.78
70684;BME280;58263;48.146;11.440;2022-10-16T13:21:53;95910.13;;;36.51;20.36
70684;BME280;58263;48.146;11.440;2022-10-16T13:30:02;95920.94;;;39.93;16.12
70684;BME280;58263;48.146;11.440;2022-10-16T13:32:27;95919.97;;;39.72;17.49
70684;BME280;58263;48.146;11.440;2022-10-16T13:34:53;95913.13;;;38.16;18.37
70684;BME280;58263;48.146;11.440;2022-10-16T13:37:22;95911.59;;;36.20;20.33
70684;BME280;58263;48.146;11.440;2022-10-16T13:39:48;95924.78;;;34.49;21.74
70684;BME280;58263;48.146;11.440;2022-10-16T13:42:25;95915.63;;;34.93;22.79
70684;BME280;58263;48.146;11.440;2022-10-16T13:44:53;95916.31;;;33.43;23.93
70684;BME280;58263;48.146;11.440;2022-10-16T13:47:27;95919.66;;;32.56;23.87
70684;BME280;58263;48.146;11.440;2022-10-16T13:50:06;95925.13;;;32.52;25.17
70684;BME280;58263;48.146;11.440;2022-10-16T13:52:34;95921.59;;;31.93;26.00
70684;BME280;58263;48.146;11.440;2022-10-16T13:54:59;95931.19;;;30.77;26.23
70684;BME280;58263;48.146;11.440;2022-10-16T13:57:25;95930.47;;;30.96;28.44
70684;BME280;58263;48.146;11.440;2022-10-16T13:59:50;95931.28;;;30.64;26.93
70684;BME280;58263;48.146;11.440;2022-10-16T14:04:48;95937.66;;;29.80;29.93
70684;BME280;58263;48.146;11.440;2022-10-16T14:07:26;95931.03;;;29.56;29.01
70684;BME280;58263;48.146;11.440;2022-10-16T14:09:53;95931.47;;;29.58;28.95
70684;BME280;58263;48.146;11.440;2022-10-16T14:12:20;95928.75;;;29.21;27.80
70684;BME280;58263;48.146;11.440;2022-10-16T14:14:51;95934.16;;;28.68;28.10
70684;BME280;58263;48.146;11.440;2022-10-16T14:17:26;95935.25;;;28.42;28.14
70684;BME280;58263;48.146;11.440;2022-10-16T14:19:57;95934.22;;;28.47;30.09
70684;BME280;58263;48.146;11.440;2022-10-16T14:22:30;95937.41;;;28.37;30.57
70684;BME280;58263;48.146;11.440;2022-10-16T14:24:57;95929.06;;;28.12;31.19
70684;BME280;58263;48.146;11.440;2022-10-16T14:27:36;95930.28;;;27.81;32.79
70684;BME280;58263;48.146;11.440;2022-10-16T14:32:33;95924.66;;;27.56;32.63
70684;BME280;58263;48.146;11.440;2022-10-16T14:34:59;95932.84;;;27.44;32.46
70684;BME280;58263;48.146;11.440;2022-10-16T14:37:27;95928.56;;;27.25;33.27
70684;BME280;58263;48.146;11.440;2022-10-16T14:39:55;95937.06;;;27.11;32.98
70684;BME280;58263;48.146;11.440;2022-10-16T14:42:23;95928.28;;;26.88;33.08
70684;BME280;58263;48.146;11.440;2022-10-16T14:44:51;95931.44;;;26.78;34.73
70684;BME280;58263;48.146;11.440;2022-10-16T14:47:19;95931.13;;;26.62;34.97
70684;BME280;58263;48.146;11.440;2022-10-16T14:49:47;95937.69;;;26.40;37.40
70684;BME280;58263;48.146;11.440;2022-10-16T14:52:13;95938.56;;;26.14;37.99
70684;BME280;58263;48.146;11.440;2022-10-16T14:54:39;95939.34;;;25.97;37.36
70684;BME280;58263;48.146;11.440;2022-10-16T14:57:05;95943.91;;;25.84;37.91
70684;BME280;58263;48.146;11.440;2022-10-16T14:59:36;95947.13;;;25.60;40.03
70684;BME280;58263;48.146;11.440;2022-10-16T15:04:46;95941.72;;;25.28;40.04
70684;BME280;58263;48.146;11.440;2022-10-16T15:07:12;95945.09;;;25.17;42.67